sensor_id;sensor_type;location;lat;lon;timestamp;pressure;altitude;pressure_sealevel;temperature
69530;BMP180;56727;47.188;8.840;2023-06-04T00:02:17;96845.60;;;26.90
69530;BMP180;56727;47.188;8.840;2023-06-04T00:04:43;96847.20;;;26.88
69530;BMP180;56727;47.188;8.840;2023-06-04T00:07:10;96845.00;;;26.86
69530;BMP180;56727;47.188;8.840;2023-06-04T00:09:37;96846.00;;;26.80
69530;BMP180;56727;47.188;8.840;2023-06-04T00:12:04;96847.80;;;26.78
69530;BMP180;56727;47.188;8.840;2023-06-04T00:14:30;96848.60;;;26.74
69530;BMP180;56727;47.188;8.840;2023-06-04T00:16:57;96847.00;;;26.72
69530;BMP180;56727;47.188;8.840;2023-06-04T00:19:24;96845.40;;;26.70
69530;BMP180;56727;47.188;8.840;2023-06-04T00:21:51;96849.20;;;26.64
69530;BMP180;56727;47.188;8.840;2023-06-04T00:24:17;96847.60;;;26.62
69530;BMP180;56727;47.188;8.840;2023-06-04T00:26:44;96845.20;;;26.60
69530;BMP180;56727;47.188;8.840;2023-06-04T00:29:11;96843.00;;;26.58
69530;BMP180;56727;47.188;8.840;2023-06-04T00:31:38;96846.00;;;26.52
69530;BMP180;56727;47.188;8.840;2023-06-04T00:34:04;96846.60;;;26.50
69530;BMP180;56727;47.188;8.840;2023-06-04T00:36:31;96845.00;;;26.50
69530;BMP180;56727;47.188;8.840;2023-06-04T00:38:58;96844.20;;;26.44
69530;BMP180;56727;47.188;8.840;2023-06-04T00:41:24;96842.20;;;26.44
69530;BMP180;56727;47.188;8.840;2023-06-04T00:43:52;96845.00;;;26.44
69530;BMP180;56727;47.188;8.840;2023-06-04T00:46:28;96836.20;;;26.44
69530;BMP180;56727;47.188;8.840;2023-06-04T00:48:55;96843.60;;;26.38
69530;BMP180;56727;47.188;8.840;2023-06-04T00:51:22;96845.40;;;26.36
69530;BMP180;56727;47.188;8.840;2023-06-04T00:53:50;96841.80;;;26.34
69530;BMP180;56727;47.188;8.840;2023-06-04T00:56:17;96843.00;;;26.32
69530;BMP180;56727;47.188;8.840;2023-06-04T00:58:45;96846.00;;;26.32
69530;BMP180;56727;47.188;8.840;2023-06-04T01:01:51;96850.60;;;26.28
69530;BMP180;56727;47.188;8.840;2023-06-04T01:04:34;96844.80;;;26.34
69530;BMP180;56727;47.188;8.840;2023-06-04T01:07:04;96843.00;;;26.30
69530;BMP180;56727;47.188;8.840;2023-06-04T01:09:32;96844.80;;;26.24
69530;BMP180;56727;47.188;8.840;2023-06-04T01:11:59;96846.60;;;26.20
69530;BMP180;56727;47.188;8.840;2023-06-04T01:14:28;96847.60;;;26.14
69530;BMP180;56727;47.188;8.840;2023-06-04T01:17:11;96849.00;;;26.10
69530;BMP180;56727;47.188;8.840;2023-06-04T01:20:40;96851.80;;;26.10
69530;BMP180;56727;47.188;8.840;2023-06-04T01:23:53;96849.00;;;26.28
69530;BMP180;56727;47.188;8.840;2023-06-04T01:26:29;96854.00;;;26.20
69530;BMP180;56727;47.188;8.840;2023-06-04T01:28:58;96856.80;;;26.00
69530;BMP180;56727;47.188;8.840;2023-06-04T01:31:25;96857.60;;;25.90
69530;BMP180;56727;47.188;8.840;2023-06-04T01:33:54;96857.00;;;25.86
69530;BMP180;56727;47.188;8.840;2023-06-04T01:36:22;96857.40;;;25.82
69530;BMP180;56727;47.188;8.840;2023-06-04T01:38:49;96859.20;;;25.80
69530;BMP180;56727;47.188;8.840;2023-06-04T01:41:16;96860.00;;;25.80
69530;BMP180;56727;47.188;8.840;2023-06-04T01:43:42;96857.00;;;25.80
69530;BMP180;56727;47.188;8.840;2023-06-04T01:46:09;96858.40;;;25.80
69530;BMP180;56727;47.188;8.840;2023-06-04T01:48:35;96854.60;;;25.74
69530;BMP180;56727;47.188;8.840;2023-06-04T01:51:02;96859.60;;;25.70
69530;BMP180;56727;47.188;8.840;2023-06-04T01:53:29;96861.80;;;25.68
69530;BMP180;56727;47.188;8.840;2023-06-04T01:55:57;96855.80;;;25.66
69530;BMP180;56727;47.188;8.840;2023-06-04T01:58:23;96861.60;;;25.64
69530;BMP180;56727;47.188;8.840;2023-06-04T02:00:54;96860.00;;;25.64
69530;BMP180;56727;47.188;8.840;2023-06-04T02:03:22;96862.80;;;25.64
69530;BMP180;56727;47.188;8.840;2023-06-04T02:05:49;96863.20;;;25.60
69530;BMP180;56727;47.188;8.840;2023-06-04T02:08:16;96862.20;;;25.56
69530;BMP180;56727;47.188;8.840;2023-06-04T02:10:47;96869.80;;;25.56
69530;BMP180;56727;47.188;8.840;2023-06-04T02:13:14;96868.00;;;25.58
69530;BMP180;56727;47.188;8.840;2023-06-04T02:15:41;96867.00;;;25.52
69530;BMP180;56727;47.188;8.840;2023-06-04T02:18:17;96870.00;;;25.50
69530;BMP180;56727;47.188;8.840;2023-06-04T02:20:45;96875.80;;;25.50
69530;BMP180;56727;47.188;8.840;2023-06-04T02:23:13;96874.60;;;25.46
69530;BMP180;56727;47.188;8.840;2023-06-04T02:25:40;96873.40;;;25.44
69530;BMP180;56727;47.188;8.840;2023-06-04T02:28:08;96872.00;;;25.40
69530;BMP180;56727;47.188;8.840;2023-06-04T02:30:34;96869.00;;;25.40
69530;BMP180;56727;47.188;8.840;2023-06-04T02:33:01;96865.60;;;25.38
69530;BMP180;56727;47.188;8.840;2023-06-04T02:35:28;96868.80;;;25.34
69530;BMP180;56727;47.188;8.840;2023-06-04T02:37:55;96869.40;;;25.30
69530;BMP180;56727;47.188;8.840;2023-06-04T02:40:25;96871.00;;;25.32
69530;BMP180;56727;47.188;8.840;2023-06-04T02:42:53;96870.80;;;25.30
69530;BMP180;56727;47.188;8.840;2023-06-04T02:45:22;96872.20;;;25.30
69530;BMP180;56727;47.188;8.840;2023-06-04T02:47:49;96876.80;;;25.24
69530;BMP180;56727;47.188;8.840;2023-06-04T02:50:16;96877.20;;;25.20
69530;BMP180;56727;47.188;8.840;2023-06-04T02:52:43;96882.40;;;25.20
69530;BMP180;56727;47.188;8.840;2023-06-04T02:55:10;96885.00;;;25.16
69530;BMP180;56727;47.188;8.840;2023-06-04T02:57:42;96883.20;;;25.16
69530;BMP180;56727;47.188;8.840;2023-06-04T03:00:12;96885.20;;;25.12
69530;BMP180;56727;47.188;8.840;2023-06-04T03:02:41;96885.80;;;25.06
69530;BMP180;56727;47.188;8.840;2023-06-04T03:05:11;96889.80;;;25.06
69530;BMP180;56727;47.188;8.840;2023-06-04T03:07:41;96891.60;;;25.02
69530;BMP180;56727;47.188;8.840;2023-06-04T03:10:11;96888.40;;;25.00
69530;BMP180;56727;47.188;8.840;2023-06-04T03:12:38;96888.00;;;24.98
69530;BMP180;56727;47.188;8.840;2023-06-04T03:15:06;96890.00;;;24.94
69530;BMP180;56727;47.188;8.840;2023-06-04T03:17:33;96890.00;;;24.90
69530;BMP180;56727;47.188;8.840;2023-06-04T03:20:00;96891.60;;;24.90
69530;BMP180;56727;47.188;8.840;2023-06-04T03:22:26;96894.20;;;24.90
69530;BMP180;56727;47.188;8.840;2023-06-04T03:24:54;96899.20;;;24.88
69530;BMP180;56727;47.188;8.840;2023-06-04T03:27:21;96899.20;;;24.84
69530;BMP180;56727;47.188;8.840;2023-06-04T03:29:48;96899.80;;;24.80
69530;BMP180;56727;47.188;8.840;2023-06-04T03:32:15;96906.80;;;24.78
69530;BMP180;56727;47.188;8.840;2023-06-04T03:34:42;96909.40;;;24.76
69530;BMP180;56727;47.188;8.840;2023-06-04T03:37:09;96911.80;;;24.76
69530;BMP180;56727;47.188;8.840;2023-06-04T03:39:36;96912.20;;;24.70
69530;BMP180;56727;47.188;8.840;2023-06-04T03:42:03;96912.60;;;24.68
69530;BMP180;56727;47.188;8.840;2023-06-04T03:44:31;96916.40;;;24.60
69530;BMP180;56727;47.188;8.840;2023-06-04T03:46:57;96918.20;;;24.60
69530;BMP180;56727;47.188;8.840;2023-06-04T03:49:24;96928.40;;;24.52
69530;BMP180;56727;47.188;8.840;2023-06-04T03:51:51;96927.40;;;24.50
69530;BMP180;56727;47.188;8.840;2023-06-04T03:54:17;96928.80;;;24.50
69530;BMP180;56727;47.188;8.840;2023-06-04T03:56:45;96930.00;;;24.50
69530;BMP180;56727;47.188;8.840;2023-06-04T03:59:12;96917.20;;;24.50
69530;BMP180;56727;47.188;8.840;2023-06-04T04:01:39;96927.60;;;24.50
69530;BMP180;56727;47.188;8.840;2023-06-04T04:04:06;96923.60;;;24.50
69530;BMP180;56727;47.188;8.840;2023-06-04T04:06:32;96927.80;;;24.50
69530;BMP180;56727;47.188;8.840;2023-06-04T04:08:59;96929.40;;;24.54
69530;BMP180;56727;47.188;8.840;2023-06-04T04:11:26;96925.00;;;24.56
69530;BMP180;56727;47.188;8.840;2023-06-04T04:13:52;96927.00;;;24.56
69530;BMP180;56727;47.188;8.840;2023-06-04T04:16:19;96927.60;;;24.58
69530;BMP180;56727;47.188;8.840;2023-06-04T04:18:46;96928.80;;;24.62
69530;BMP180;56727;47.188;8.840;2023-06-04T04:21:13;96932.80;;;24.62
69530;BMP180;56727;47.188;8.840;2023-06-04T04:23:39;96930.00;;;24.66
69530;BMP180;56727;47.188;8.840;2023-06-04T04:26:08;96929.60;;;24.70
69530;BMP180;56727;47.188;8.840;2023-06-04T04:28:36;96932.40;;;24.72
69530;BMP180;56727;47.188;8.840;2023-06-04T04:31:04;96928.40;;;24.78
69530;BMP180;56727;47.188;8.840;2023-06-04T04:33:30;96939.80;;;24.80
69530;BMP180;56727;47.188;8.840;2023-06-04T04:36:03;96938.80;;;24.86
69530;BMP180;56727;47.188;8.840;2023-06-04T04:38:29;96942.60;;;24.90
69530;BMP180;56727;47.188;8.840;2023-06-04T04:40:57;96932.00;;;24.98
69530;BMP180;56727;47.188;8.840;2023-06-04T04:43:32;96942.20;;;25.06
69530;BMP180;56727;47.188;8.840;2023-06-04T04:45:59;96944.80;;;25.10
69530;BMP180;56727;47.188;8.840;2023-06-04T04:48:26;96944.80;;;25.12
69530;BMP180;56727;47.188;8.840;2023-06-04T04:50:53;96944.40;;;25.16
69530;BMP180;56727;47.188;8.840;2023-06-04T04:53:20;96942.40;;;25.20
69530;BMP180;56727;47.188;8.840;2023-06-04T04:55:47;96947.20;;;25.24
69530;BMP180;56727;47.188;8.840;2023-06-04T04:58:15;96947.80;;;25.30
69530;BMP180;56727;47.188;8.840;2023-06-04T05:00:42;96933.60;;;25.34
69530;BMP180;56727;47.188;8.840;2023-06-04T05:03:08;96947.60;;;25.38
69530;BMP180;56727;47.188;8.840;2023-06-04T05:05:35;96943.40;;;25.42
69530;BMP180;56727;47.188;8.840;2023-06-04T05:08:02;96947.20;;;25.50
69530;BMP180;56727;47.188;8.840;2023-06-04T05:10:28;96942.40;;;25.56
69530;BMP180;56727;47.188;8.840;2023-06-04T05:12:58;96941.60;;;25.64
69530;BMP180;56727;47.188;8.840;2023-06-04T05:15:26;96944.80;;;25.70
69530;BMP180;56727;47.188;8.840;2023-06-04T05:17:53;96949.60;;;25.80
69530;BMP180;56727;47.188;8.840;2023-06-04T05:20:20;96951.40;;;25.88
69530;BMP180;56727;47.188;8.840;2023-06-04T05:22:47;96950.80;;;25.96
69530;BMP180;56727;47.188;8.840;2023-06-04T05:25:16;96949.60;;;26.06
69530;BMP180;56727;47.188;8.840;2023-06-04T05:27:43;96956.60;;;26.14
69530;BMP180;56727;47.188;8.840;2023-06-04T05:30:11;96955.60;;;26.24
69530;BMP180;56727;47.188;8.840;2023-06-04T05:32:38;96955.60;;;26.30
69530;BMP180;56727;47.188;8.840;2023-06-04T05:35:08;96959.00;;;26.42
69530;BMP180;56727;47.188;8.840;2023-06-04T05:37:36;96966.80;;;26.54
69530;BMP180;56727;47.188;8.840;2023-06-04T05:40:05;96965.80;;;26.98
69530;BMP180;56727;47.188;8.840;2023-06-04T05:42:32;96965.60;;;27.66
69530;BMP180;56727;47.188;8.840;2023-06-04T05:44:59;96962.20;;;28.24
69530;BMP180;56727;47.188;8.840;2023-06-04T05:47:27;96962.00;;;28.74
69530;BMP180;56727;47.188;8.840;2023-06-04T05:49:57;96961.00;;;29.52
69530;BMP180;56727;47.188;8.840;2023-06-04T05:52:24;96957.00;;;30.24
69530;BMP180;56727;47.188;8.840;2023-06-04T05:54:50;96959.40;;;30.96
69530;BMP180;56727;47.188;8.840;2023-06-04T05:57:17;96962.40;;;31.66
69530;BMP180;56727;47.188;8.840;2023-06-04T05:59:44;96962.40;;;32.26
69530;BMP180;56727;47.188;8.840;2023-06-04T06:02:12;96960.20;;;32.84
69530;BMP180;56727;47.188;8.840;2023-06-04T06:04:39;96960.80;;;33.38
69530;BMP180;56727;47.188;8.840;2023-06-04T06:07:05;96962.00;;;33.84
69530;BMP180;56727;47.188;8.840;2023-06-04T06:09:32;96963.00;;;34.32
69530;BMP180;56727;47.188;8.840;2023-06-04T06:11:59;96959.60;;;34.76
69530;BMP180;56727;47.188;8.840;2023-06-04T06:14:26;96960.80;;;35.22
69530;BMP180;56727;47.188;8.840;2023-06-04T06:16:53;96960.40;;;35.64
69530;BMP180;56727;47.188;8.840;2023-06-04T06:19:20;96964.80;;;36.06
69530;BMP180;56727;47.188;8.840;2023-06-04T06:21:48;96963.40;;;36.50
69530;BMP180;56727;47.188;8.840;2023-06-04T06:24:15;96966.00;;;36.94
69530;BMP180;56727;47.188;8.840;2023-06-04T06:26:42;96972.80;;;37.38
69530;BMP180;56727;47.188;8.840;2023-06-04T06:29:11;96973.60;;;37.84
69530;BMP180;56727;47.188;8.840;2023-06-04T06:31:38;96975.60;;;38.30
69530;BMP180;56727;47.188;8.840;2023-06-04T06:34:05;96980.20;;;38.76
69530;BMP180;56727;47.188;8.840;2023-06-04T06:36:31;96985.20;;;39.18
69530;BMP180;56727;47.188;8.840;2023-06-04T06:38:59;96989.60;;;39.64
69530;BMP180;56727;47.188;8.840;2023-06-04T06:41:26;96996.80;;;40.04
69530;BMP180;56727;47.188;8.840;2023-06-04T06:43:52;96991.00;;;40.36
69530;BMP180;56727;47.188;8.840;2023-06-04T06:46:19;96992.40;;;40.70
69530;BMP180;56727;47.188;8.840;2023-06-04T06:48:46;96990.40;;;41.04
69530;BMP180;56727;47.188;8.840;2023-06-04T06:51:15;96996.00;;;41.40
69530;BMP180;56727;47.188;8.840;2023-06-04T06:53:41;96997.40;;;41.82
69530;BMP180;56727;47.188;8.840;2023-06-04T06:56:08;96992.40;;;42.26
69530;BMP180;56727;47.188;8.840;2023-06-04T06:58:35;97001.80;;;42.74
69530;BMP180;56727;47.188;8.840;2023-06-04T07:01:02;97004.20;;;43.14
69530;BMP180;56727;47.188;8.840;2023-06-04T07:03:28;97003.00;;;43.52
69530;BMP180;56727;47.188;8.840;2023-06-04T07:05:55;97001.20;;;43.92
69530;BMP180;56727;47.188;8.840;2023-06-04T07:08:22;97000.40;;;44.36
69530;BMP180;56727;47.188;8.840;2023-06-04T07:10:48;96999.00;;;44.76
69530;BMP180;56727;47.188;8.840;2023-06-04T07:13:15;97004.00;;;45.24
69530;BMP180;56727;47.188;8.840;2023-06-04T07:15:42;97002.80;;;45.74
69530;BMP180;56727;47.188;8.840;2023-06-04T07:18:09;97008.40;;;46.16
69530;BMP180;56727;47.188;8.840;2023-06-04T07:20:36;97010.40;;;46.44
69530;BMP180;56727;47.188;8.840;2023-06-04T07:23:02;97010.20;;;46.70
69530;BMP180;56727;47.188;8.840;2023-06-04T07:25:29;97014.00;;;46.94
69530;BMP180;56727;47.188;8.840;2023-06-04T07:27:55;97012.20;;;47.28
69530;BMP180;56727;47.188;8.840;2023-06-04T07:30:26;97011.20;;;47.76
69530;BMP180;56727;47.188;8.840;2023-06-04T07:32:52;97008.00;;;48.24
69530;BMP180;56727;47.188;8.840;2023-06-04T07:35:19;97003.20;;;48.68
69530;BMP180;56727;47.188;8.840;2023-06-04T07:37:46;97007.80;;;49.08
69530;BMP180;56727;47.188;8.840;2023-06-04T07:40:16;97005.20;;;49.34
69530;BMP180;56727;47.188;8.840;2023-06-04T07:42:44;97005.20;;;49.58
69530;BMP180;56727;47.188;8.840;2023-06-04T07:45:11;97005.20;;;49.94
69530;BMP180;56727;47.188;8.840;2023-06-04T07:47:38;96998.40;;;50.26
69530;BMP180;56727;47.188;8.840;2023-06-04T07:50:06;96999.40;;;50.64
69530;BMP180;56727;47.188;8.840;2023-06-04T07:52:33;96996.00;;;50.98
69530;BMP180;56727;47.188;8.840;2023-06-04T07:55:02;96992.40;;;51.24
69530;BMP180;56727;47.188;8.840;2023-06-04T07:57:29;96995.20;;;51.40
69530;BMP180;56727;47.188;8.840;2023-06-04T07:59:56;96992.20;;;51.50
69530;BMP180;56727;47.188;8.840;2023-06-04T08:02:24;96993.00;;;51.22
69530;BMP180;56727;47.188;8.840;2023-06-04T08:04:50;96998.00;;;50.88
69530;BMP180;56727;47.188;8.840;2023-06-04T08:07:17;97001.20;;;50.38
69530;BMP180;56727;47.188;8.840;2023-06-04T08:09:44;96999.20;;;49.62
69530;BMP180;56727;47.188;8.840;2023-06-04T08:12:11;97001.80;;;48.30
69530;BMP180;56727;47.188;8.840;2023-06-04T08:14:38;96999.20;;;47.12
69530;BMP180;56727;47.188;8.840;2023-06-04T08:17:05;97005.00;;;46.02
69530;BMP180;56727;47.188;8.840;2023-06-04T08:19:31;97002.20;;;45.08
69530;BMP180;56727;47.188;8.840;2023-06-04T08:21:58;97005.60;;;44.16
69530;BMP180;56727;47.188;8.840;2023-06-04T08:24:24;97009.00;;;43.28
69530;BMP180;56727;47.188;8.840;2023-06-04T08:26:51;97006.20;;;42.40
69530;BMP180;56727;47.188;8.840;2023-06-04T08:29:18;97006.00;;;41.70
69530;BMP180;56727;47.188;8.840;2023-06-04T08:31:45;97004.40;;;41.10
69530;BMP180;56727;47.188;8.840;2023-06-04T08:34:12;97003.40;;;40.58
69530;BMP180;56727;47.188;8.840;2023-06-04T08:36:38;96996.40;;;40.00
69530;BMP180;56727;47.188;8.840;2023-06-04T08:39:05;96991.20;;;39.60
69530;BMP180;56727;47.188;8.840;2023-06-04T08:41:45;96994.40;;;39.20
69530;BMP180;56727;47.188;8.840;2023-06-04T08:44:12;96997.00;;;38.90
69530;BMP180;56727;47.188;8.840;2023-06-04T08:46:39;96990.00;;;38.54
69530;BMP180;56727;47.188;8.840;2023-06-04T08:49:09;96993.60;;;38.36
69530;BMP180;56727;47.188;8.840;2023-06-04T08:51:37;96992.20;;;38.18
69530;BMP180;56727;47.188;8.840;2023-06-04T08:54:06;97000.00;;;38.00
69530;BMP180;56727;47.188;8.840;2023-06-04T08:56:34;97002.00;;;37.82
69530;BMP180;56727;47.188;8.840;2023-06-04T08:59:05;97005.80;;;37.62
69530;BMP180;56727;47.188;8.840;2023-06-04T09:01:35;97007.20;;;37.48
69530;BMP180;56727;47.188;8.840;2023-06-04T09:04:06;97009.80;;;37.26
69530;BMP180;56727;47.188;8.840;2023-06-04T09:06:33;97006.00;;;37.10
69530;BMP180;56727;47.188;8.840;2023-06-04T09:09:03;97004.20;;;36.90
69530;BMP180;56727;47.188;8.840;2023-06-04T09:14:37;96999.80;;;36.52
69530;BMP180;56727;47.188;8.840;2023-06-04T09:17:04;96999.80;;;36.20
69530;BMP180;56727;47.188;8.840;2023-06-04T09:19:31;96997.00;;;36.06
69530;BMP180;56727;47.188;8.840;2023-06-04T09:22:00;96993.20;;;35.90
69530;BMP180;56727;47.188;8.840;2023-06-04T09:24:47;96991.40;;;35.82
69530;BMP180;56727;47.188;8.840;2023-06-04T09:27:19;96987.40;;;35.76
69530;BMP180;56727;47.188;8.840;2023-06-04T09:29:53;96986.20;;;35.62
69530;BMP180;56727;47.188;8.840;2023-06-04T09:32:30;96984.60;;;35.58
69530;BMP180;56727;47.188;8.840;2023-06-04T09:35:15;96980.80;;;35.56
69530;BMP180;56727;47.188;8.840;2023-06-04T09:37:52;96982.20;;;35.56
69530;BMP180;56727;47.188;8.840;2023-06-04T09:40:19;96980.80;;;35.50
69530;BMP180;56727;47.188;8.840;2023-06-04T09:42:48;96979.00;;;35.46
69530;BMP180;56727;47.188;8.840;2023-06-04T09:45:33;96976.00;;;35.56
69530;BMP180;56727;47.188;8.840;2023-06-04T09:48:02;96972.40;;;35.64
69530;BMP180;56727;47.188;8.840;2023-06-04T09:50:32;96971.40;;;35.58
69530;BMP180;56727;47.188;8.840;2023-06-04T09:53:00;96967.20;;;35.56
69530;BMP180;56727;47.188;8.840;2023-06-04T09:55:28;96968.00;;;35.54
69530;BMP180;56727;47.188;8.840;2023-06-04T09:57:55;96967.40;;;35.56
69530;BMP180;56727;47.188;8.840;2023-06-04T10:00:23;96966.80;;;35.62
69530;BMP180;56727;47.188;8.840;2023-06-04T10:02:56;96968.80;;;35.70
69530;BMP180;56727;47.188;8.840;2023-06-04T10:05:25;96966.80;;;35.80
69530;BMP180;56727;47.188;8.840;2023-06-04T10:07:56;96965.00;;;35.82
69530;BMP180;56727;47.188;8.840;2023-06-04T10:10:26;96960.00;;;35.82
69530;BMP180;56727;47.188;8.840;2023-06-04T10:13:05;96958.60;;;35.86
69530;BMP180;56727;47.188;8.840;2023-06-04T10:15:33;96954.00;;;35.98
69530;BMP180;56727;47.188;8.840;2023-06-04T10:18:02;96956.40;;;35.98
69530;BMP180;56727;47.188;8.840;2023-06-04T10:20:31;96949.40;;;36.00
69530;BMP180;56727;47.188;8.840;2023-06-04T10:23:00;96949.80;;;36.04
69530;BMP180;56727;47.188;8.840;2023-06-04T10:25:27;96953.40;;;36.12
69530;BMP180;56727;47.188;8.840;2023-06-04T10:27:55;96952.00;;;36.20
69530;BMP180;56727;47.188;8.840;2023-06-04T10:30:22;96944.80;;;36.20
69530;BMP180;56727;47.188;8.840;2023-06-04T10:32:48;96944.60;;;36.18
69530;BMP180;56727;47.188;8.840;2023-06-04T10:35:15;96942.60;;;36.16
69530;BMP180;56727;47.188;8.840;2023-06-04T10:37:42;96933.60;;;36.10
69530;BMP180;56727;47.188;8.840;2023-06-04T10:40:09;96938.80;;;36.12
69530;BMP180;56727;47.188;8.840;2023-06-04T10:42:42;96937.40;;;36.14
69530;BMP180;56727;47.188;8.840;2023-06-04T10:45:10;96934.80;;;36.18
69530;BMP180;56727;47.188;8.840;2023-06-04T10:47:37;96933.20;;;36.16
69530;BMP180;56727;47.188;8.840;2023-06-04T10:50:12;96939.80;;;36.10
69530;BMP180;56727;47.188;8.840;2023-06-04T10:52:52;96940.20;;;36.06
69530;BMP180;56727;47.188;8.840;2023-06-04T10:55:19;96939.20;;;36.00
69530;BMP180;56727;47.188;8.840;2023-06-04T10:57:57;96935.00;;;35.94
69530;BMP180;56727;47.188;8.840;2023-06-04T11:00:41;96933.40;;;35.92
69530;BMP180;56727;47.188;8.840;2023-06-04T11:03:12;96936.00;;;35.90
69530;BMP180;56727;47.188;8.840;2023-06-04T11:05:41;96935.60;;;35.84
69530;BMP180;56727;47.188;8.840;2023-06-04T11:08:11;96928.60;;;35.78
69530;BMP180;56727;47.188;8.840;2023-06-04T11:10:44;96937.40;;;35.70
69530;BMP180;56727;47.188;8.840;2023-06-04T11:13:12;96930.60;;;35.62
69530;BMP180;56727;47.188;8.840;2023-06-04T11:15:44;96932.80;;;35.54
69530;BMP180;56727;47.188;8.840;2023-06-04T11:18:19;96934.80;;;35.48
69530;BMP180;56727;47.188;8.840;2023-06-04T11:21:00;96930.80;;;35.46
69530;BMP180;56727;47.188;8.840;2023-06-04T11:23:28;96932.80;;;35.54
69530;BMP180;56727;47.188;8.840;2023-06-04T11:25:55;96933.00;;;35.50
69530;BMP180;56727;47.188;8.840;2023-06-04T11:28:22;96929.60;;;35.54
69530;BMP180;56727;47.188;8.840;2023-06-04T11:31:02;96927.80;;;35.58
69530;BMP180;56727;47.188;8.840;2023-06-04T11:33:30;96925.80;;;35.62
69530;BMP180;56727;47.188;8.840;2023-06-04T11:35:57;96920.60;;;35.58
69530;BMP180;56727;47.188;8.840;2023-06-04T11:38:23;96920.00;;;35.50
69530;BMP180;56727;47.188;8.840;2023-06-04T11:40:58;96913.80;;;35.50
69530;BMP180;56727;47.188;8.840;2023-06-04T11:43:27;96911.80;;;35.56
69530;BMP180;56727;47.188;8.840;2023-06-04T11:45:54;96909.40;;;35.60
69530;BMP180;56727;47.188;8.840;2023-06-04T11:48:21;96908.00;;;35.62
69530;BMP180;56727;47.188;8.840;2023-06-04T11:50:48;96910.00;;;35.64
69530;BMP180;56727;47.188;8.840;2023-06-04T11:53:15;96902.60;;;35.68
69530;BMP180;56727;47.188;8.840;2023-06-04T11:55:42;96904.60;;;35.68
69530;BMP180;56727;47.188;8.840;2023-06-04T11:58:09;96905.60;;;35.70
69530;BMP180;56727;47.188;8.840;2023-06-04T12:00:36;96903.60;;;35.70
69530;BMP180;56727;47.188;8.840;2023-06-04T12:03:03;96902.20;;;35.62
69530;BMP180;56727;47.188;8.840;2023-06-04T12:05:30;96898.60;;;35.62
69530;BMP180;56727;47.188;8.840;2023-06-04T12:08:09;96891.20;;;35.60
69530;BMP180;56727;47.188;8.840;2023-06-04T12:10:42;96900.00;;;35.64
69530;BMP180;56727;47.188;8.840;2023-06-04T12:13:09;96896.60;;;35.76
69530;BMP180;56727;47.188;8.840;2023-06-04T12:15:36;96902.00;;;35.78
69530;BMP180;56727;47.188;8.840;2023-06-04T12:18:03;96898.80;;;35.82
69530;BMP180;56727;47.188;8.840;2023-06-04T12:20:40;96894.40;;;35.88
69530;BMP180;56727;47.188;8.840;2023-06-04T12:23:08;96892.80;;;35.90
69530;BMP180;56727;47.188;8.840;2023-06-04T12:25:35;96888.40;;;35.92
69530;BMP180;56727;47.188;8.840;2023-06-04T12:28:03;96886.00;;;35.92
69530;BMP180;56727;47.188;8.840;2023-06-04T12:30:38;96889.00;;;35.90
69530;BMP180;56727;47.188;8.840;2023-06-04T12:33:05;96889.80;;;35.88
69530;BMP180;56727;47.188;8.840;2023-06-04T12:35:33;96888.80;;;35.84
69530;BMP180;56727;47.188;8.840;2023-06-04T12:38:04;96885.80;;;35.80
69530;BMP180;56727;47.188;8.840;2023-06-04T12:40:31;96885.80;;;35.80
69530;BMP180;56727;47.188;8.840;2023-06-04T12:42:58;96885.20;;;35.78
69530;BMP180;56727;47.188;8.840;2023-06-04T12:45:24;96884.00;;;35.74
69530;BMP180;56727;47.188;8.840;2023-06-04T12:47:51;96873.60;;;35.72
69530;BMP180;56727;47.188;8.840;2023-06-04T12:50:17;96874.20;;;35.74
69530;BMP180;56727;47.188;8.840;2023-06-04T12:52:44;96879.00;;;35.74
69530;BMP180;56727;47.188;8.840;2023-06-04T12:55:11;96877.40;;;35.76
69530;BMP180;56727;47.188;8.840;2023-06-04T12:57:37;96876.00;;;35.80
69530;BMP180;56727;47.188;8.840;2023-06-04T13:00:06;96877.40;;;35.84
69530;BMP180;56727;47.188;8.840;2023-06-04T13:02:33;96875.60;;;35.86
69530;BMP180;56727;47.188;8.840;2023-06-04T13:05:00;96876.20;;;35.90
69530;BMP180;56727;47.188;8.840;2023-06-04T13:07:27;96872.80;;;35.92
69530;BMP180;56727;47.188;8.840;2023-06-04T13:09:53;96874.60;;;35.94
69530;BMP180;56727;47.188;8.840;2023-06-04T13:12:20;96871.80;;;35.96
69530;BMP180;56727;47.188;8.840;2023-06-04T13:14:46;96867.60;;;35.90
69530;BMP180;56727;47.188;8.840;2023-06-04T13:17:13;96867.80;;;35.86
69530;BMP180;56727;47.188;8.840;2023-06-04T13:19:40;96867.60;;;35.82
69530;BMP180;56727;47.188;8.840;2023-06-04T13:22:06;96867.80;;;35.80
69530;BMP180;56727;47.188;8.840;2023-06-04T13:24:35;96866.00;;;35.78
69530;BMP180;56727;47.188;8.840;2023-06-04T13:27:02;96871.00;;;35.78
69530;BMP180;56727;47.188;8.840;2023-06-04T13:29:29;96872.00;;;35.74
69530;BMP180;56727;47.188;8.840;2023-06-04T13:31:59;96870.00;;;35.70
69530;BMP180;56727;47.188;8.840;2023-06-04T13:34:26;96869.80;;;35.66
69530;BMP180;56727;47.188;8.840;2023-06-04T13:36:54;96872.60;;;35.60
69530;BMP180;56727;47.188;8.840;2023-06-04T13:39:21;96867.80;;;35.52
69530;BMP180;56727;47.188;8.840;2023-06-04T13:41:48;96870.40;;;35.46
69530;BMP180;56727;47.188;8.840;2023-06-04T13:44:15;96868.00;;;35.40
69530;BMP180;56727;47.188;8.840;2023-06-04T13:46:41;96871.00;;;35.30
69530;BMP180;56727;47.188;8.840;2023-06-04T13:49:08;96874.60;;;35.20
69530;BMP180;56727;47.188;8.840;2023-06-04T13:51:35;96873.40;;;35.12
69530;BMP180;56727;47.188;8.840;2023-06-04T13:54:02;96868.00;;;35.04
69530;BMP180;56727;47.188;8.840;2023-06-04T13:56:29;96869.80;;;34.98
69530;BMP180;56727;47.188;8.840;2023-06-04T13:58:56;96864.20;;;34.92
69530;BMP180;56727;47.188;8.840;2023-06-04T14:01:22;96855.40;;;34.88
69530;BMP180;56727;47.188;8.840;2023-06-04T14:03:49;96861.80;;;34.86
69530;BMP180;56727;47.188;8.840;2023-06-04T14:06:16;96860.60;;;34.86
69530;BMP180;56727;47.188;8.840;2023-06-04T14:08:43;96857.20;;;34.84
69530;BMP180;56727;47.188;8.840;2023-06-04T14:11:09;96854.40;;;34.86
69530;BMP180;56727;47.188;8.840;2023-06-04T14:13:37;96851.80;;;34.86
69530;BMP180;56727;47.188;8.840;2023-06-04T14:16:05;96850.40;;;34.88
69530;BMP180;56727;47.188;8.840;2023-06-04T14:18:31;96843.00;;;34.86
69530;BMP180;56727;47.188;8.840;2023-06-04T14:20:58;96839.40;;;34.82